Time;durP1;ratioP1;P1;durP2;ratioP2;P2;SDS_P1;SDS_P2;PMS_P1;PMS_P2;Temp;Humidity;BMP_temperature;BMP_pressure;BME280_temperature;BME280_humidity;BME280_pressure;Samples;Min_cycle;Max_cycle;Signal;HPM_P1;HPM_P2
2023/03/11 00:00:23;;;;;;;1.3;0.7;;;;;;;5.28;90.49023;923.9637;;;;
2023/03/11 00:02:53;;;;;;;0.8;0.7;;;;;;;5.3;90.42773;924.0025;;;;
2023/03/11 00:05:32;;;;;;;0.6;0.6;;;;;;;5.36;90.19141;924.0424;;;;
2023/03/11 00:07:58;;;;;;;0.6;0.6;;;;;;;5.41;88.08203;924.0042;;;;
2023/03/11 00:10:31;;;;;;;0.6;0.6;;;;;;;5.18;88.0918;924.0347;;;;
2023/03/11 00:13:03;;;;;;;2;0.6;;;;;;;5.17;88.43945;924.1152;;;;
2023/03/11 00:15:43;;;;;;;1.2;0.7;;;;;;;4.95;90.46582;924.0746;;;;
2023/03/11 00:18:08;;;;;;;0.9;0.6;;;;;;;4.73;89.94531;924.1066;;;;
2023/03/11 00:20:34;;;;;;;0.7;0.6;;;;;;;4.65;88.2627;924.1005;;;;
2023/03/11 00:23:03;;;;;;;0.7;0.6;;;;;;;4.62;88.62695;924.1286;;;;
2023/03/11 00:25:29;;;;;;;2.2;1.4;;;;;;;4.73;89.62988;924.1492;;;;
2023/03/11 00:27:53;;;;;;;6.7;3.2;;;;;;;4.93;89.17578;924.2353;;;;
2023/03/11 00:30:38;;;;;;;5.1;3.1;;;;;;;5.01;85.21387;924.5242;;;;
2023/03/11 00:33:05;;;;;;;1.1;0.8;;;;;;;5.1;86.9248;924.7134;;;;
2023/03/11 00:35:44;;;;;;;1.5;1;;;;;;;5.06;87.30957;924.796;;;;
2023/03/11 00:38:21;;;;;;;1;0.7;;;;;;;4.62;84.06641;924.5754;;;;
2023/03/11 00:40:53;;;;;;;0.7;0.7;;;;;;;4.28;85.30566;924.5969;;;;
2023/03/11 00:43:28;;;;;;;1.2;0.9;;;;;;;4.08;88.14551;924.5179;;;;
2023/03/11 00:45:57;;;;;;;1.1;0.9;;;;;;;3.99;88.00098;924.3592;;;;
2023/03/11 00:48:22;;;;;;;0.9;0.9;;;;;;;3.8;88.54785;924.452;;;;
2023/03/11 00:50:49;;;;;;;1.3;1.2;;;;;;;3.71;89.01074;924.372;;;;
2023/03/11 00:53:14;;;;;;;1;0.9;;;;;;;3.68;89.39844;924.5645;;;;
2023/03/11 00:55:39;;;;;;;1;0.9;;;;;;;3.76;89.33691;924.5458;;;;
2023/03/11 00:58:04;;;;;;;0.7;0.7;;;;;;;3.77;89.2041;924.6547;;;;
2023/03/11 01:00:29;;;;;;;0.9;0.8;;;;;;;3.88;89.10254;924.798;;;;
2023/03/11 01:02:56;;;;;;;1.1;1;;;;;;;3.94;89.10449;924.9106;;;;
2023/03/11 01:05:21;;;;;;;1;1;;;;;;;3.65;90.23535;924.9381;;;;
2023/03/11 01:08:10;;;;;;;2;1.8;;;;;;;3.71;90.15723;924.9396;;;;
2023/03/11 01:10:40;;;;;;;2.1;1.7;;;;;;;3.75;89.64063;924.8521;;;;
2023/03/11 01:13:09;;;;;;;2.2;2.1;;;;;;;3.74;89.37598;924.7605;;;;
2023/03/11 01:18:21;;;;;;;2.2;2;;;;;;;3.55;89.40527;924.8254;;;;
2023/03/11 01:20:50;;;;;;;2.3;2.1;;;;;;;3.24;90.55176;924.7523;;;;
2023/03/11 01:23:16;;;;;;;2.1;1.9;;;;;;;3.2;91.17188;924.6822;;;;
2023/03/11 01:26:23;;;;;;;2.3;2.1;;;;;;;3.07;91.14355;924.8541;;;;
2023/03/11 01:28:52;;;;;;;2.1;1.9;;;;;;;3.11;91.16406;924.655;;;;
2023/03/11 01:31:17;;;;;;;2;1.9;;;;;;;2.78;92.95605;924.7437;;;;
2023/03/11 01:33:42;;;;;;;2.4;2.2;;;;;;;2.89;93.06934;924.8275;;;;
2023/03/11 01:36:12;;;;;;;2.1;1.8;;;;;;;2.9;92.69922;924.7906;;;;
2023/03/11 01:38:37;;;;;;;2.1;2;;;;;;;2.93;92.8418;924.8162;;;;
2023/03/11 01:41:09;;;;;;;2;1.9;;;;;;;2.8;93.37305;924.8979;;;;
2023/03/11 01:43:31;;;;;;;2.2;2;;;;;;;2.71;93.72461;924.9673;;;;
2023/03/11 01:45:56;;;;;;;2.3;2.1;;;;;;;2.84;93.41602;924.9256;;;;
2023/03/11 01:48:21;;;;;;;1.8;1.7;;;;;;;2.76;93.31055;924.8298;;;;
2023/03/11 01:50:47;;;;;;;3.4;2.2;;;;;;;2.86;93.09473;924.775;;;;
2023/03/11 01:53:12;;;;;;;1.9;1.7;;;;;;;2.66;92.88379;924.8461;;;;
2023/03/11 01:55:42;;;;;;;2.1;1.9;;;;;;;2.58;93.57129;924.9277;;;;
2023/03/11 01:58:07;;;;;;;2.3;2.1;;;;;;;2.45;94.22754;924.9358;;;;
2023/03/11 02:00:32;;;;;;;2.5;2.3;;;;;;;2.56;94.35254;924.925;;;;
2023/03/11 02:02:57;;;;;;;2.2;2;;;;;;;2.66;93.91504;924.9169;;;;
2023/03/11 02:05:26;;;;;;;2.2;2;;;;;;;2.52;93.72559;924.9299;;;;
2023/03/11 02:07:51;;;;;;;2.1;1.9;;;;;;;2.46;93.79199;924.8558;;;;
2023/03/11 02:10:23;;;;;;;1.8;1.7;;;;;;;2.53;93.77441;925.0094;;;;
2023/03/11 02:12:52;;;;;;;2.1;1.9;;;;;;;2.37;93.85254;925.0669;;;;
2023/03/11 02:15:18;;;;;;;2;1.8;;;;;;;2.4;94.12793;925.0316;;;;
2023/03/11 02:17:48;;;;;;;2.3;2;;;;;;;2.48;93.9082;925.0658;;;;
2023/03/11 02:24:11;;;;;;;2.1;1.6;;;;;;;2.53;93.25879;925.0008;;;;
2023/03/11 02:26:40;;;;;;;1.8;1.7;;;;;;;2.49;92.85742;925.1069;;;;
2023/03/11 02:29:05;;;;;;;1.8;1.7;;;;;;;2.55;93.03906;925.0499;;;;
2023/03/11 02:34:36;;;;;;;1.6;1.5;;;;;;;2.52;92.49512;925.0847;;;;
2023/03/11 02:37:03;;;;;;;1.5;1.4;;;;;;;2.34;92.48926;925.1213;;;;
2023/03/11 02:39:29;;;;;;;2.7;1.7;;;;;;;2.15;93.42188;925.272;;;;
2023/03/11 02:41:58;;;;;;;1.8;1.7;;;;;;;2.24;93.90137;925.2112;;;;
2023/03/11 02:44:23;;;;;;;1.7;1.6;;;;;;;2.26;93.42188;925.1934;;;;
2023/03/11 02:46:48;;;;;;;1.9;1.8;;;;;;;2.2;93.5332;925.1716;;;;
2023/03/11 02:49:15;;;;;;;2.1;1.9;;;;;;;2.34;93.43066;925.2241;;;;
2023/03/11 02:51:40;;;;;;;2.7;1.8;;;;;;;2.47;92.86426;925.3069;;;;
2023/03/11 02:54:07;;;;;;;2.2;2;;;;;;;2.48;92.37305;925.2913;;;;
2023/03/11 02:56:32;;;;;;;1.9;1.8;;;;;;;2.14;93.16016;925.2867;;;;
2023/03/11 02:58:58;;;;;;;2.1;1.9;;;;;;;2.36;93.12012;925.219;;;;
2023/03/11 03:01:23;;;;;;;2.1;1.9;;;;;;;2.4;92.75;925.3409;;;;
2023/03/11 03:03:50;;;;;;;2;1.8;;;;;;;2.43;92.60938;925.2528;;;;
2023/03/11 03:06:15;;;;;;;2.7;1.9;;;;;;;2.4;92.43359;925.226;;;;
2023/03/11 03:08:42;;;;;;;2.4;2.2;;;;;;;2.4;92.61328;925.2573;;;;
2023/03/11 03:11:07;;;;;;;2.3;2.1;;;;;;;2.49;92.24023;925.378;;;;
2023/03/11 03:13:35;;;;;;;1.9;1.7;;;;;;;2.46;92.02148;925.4285;;;;
2023/03/11 03:16:00;;;;;;;1.8;1.7;;;;;;;2.32;92.43848;925.4168;;;;
2023/03/11 03:18:26;;;;;;;2.3;2.1;;;;;;;2.25;93.0293;925.3214;;;;
2023/03/11 03:20:51;;;;;;;2.2;2;;;;;;;2.25;92.97363;925.4644;;;;
2023/03/11 03:23:18;;;;;;;2.2;2;;;;;;;2.28;92.83398;925.4852;;;;
2023/03/11 03:25:44;;;;;;;1.8;1.6;;;;;;;2.35;92.52441;925.5242;;;;
2023/03/11 03:28:12;;;;;;;2.3;1.9;;;;;;;2.41;92.32422;925.5272;;;;
2023/03/11 03:30:36;;;;;;;1.8;1.7;;;;;;;2.49;91.78125;925.601;;;;
2023/03/11 03:33:02;;;;;;;2;1.8;;;;;;;2.62;91.38281;925.5101;;;;
2023/03/11 03:35:32;;;;;;;2.1;1.9;;;;;;;2.73;90.95996;925.4531;;;;
2023/03/11 03:37:57;;;;;;;1.8;1.7;;;;;;;2.77;90.51855;925.4295;;;;
2023/03/11 03:40:25;;;;;;;1.8;1.7;;;;;;;2.53;90.53613;925.5327;;;;
2023/03/11 03:42:50;;;;;;;2;1.8;;;;;;;2.42;90.40039;925.6422;;;;
2023/03/11 03:45:19;;;;;;;2.1;1.9;;;;;;;2.33;91.45703;925.7932;;;;
2023/03/11 03:47:50;;;;;;;2.1;1.9;;;;;;;2.32;91.5;925.8073;;;;
2023/03/11 03:50:15;;;;;;;2.1;1.9;;;;;;;2.41;91.31543;925.8344;;;;
2023/03/11 03:52:42;;;;;;;1.9;1.8;;;;;;;2.31;91.29395;925.8039;;;;
2023/03/11 03:55:07;;;;;;;2.7;2.1;;;;;;;2.43;91.23145;925.7727;;;;
2023/03/11 03:57:35;;;;;;;2.2;2;;;;;;;2.46;90.77832;925.8361;;;;
2023/03/11 04:00:00;;;;;;;1.9;1.7;;;;;;;2.43;90.66016;925.706;;;;
2023/03/11 04:02:35;;;;;;;2.2;2;;;;;;;2.24;90.53027;925.8135;;;;
2023/03/11 04:05:08;;;;;;;2.4;2.2;;;;;;;2.35;91.25879;925.7191;;;;
2023/03/11 04:11:03;;;;;;;2.2;2;;;;;;;2.38;90.9834;925.4949;;;;
2023/03/11 04:13:33;;;;;;;2;1.8;;;;;;;2.27;91.07324;925.4646;;;;
2023/03/11 04:16:03;;;;;;;2.2;2;;;;;;;2.08;91.46973;925.6727;;;;
2023/03/11 04:18:28;;;;;;;2.3;2.1;;;;;;;2.25;91.84277;925.7383;;;;
2023/03/11 04:20:55;;;;;;;2;1.8;;;;;;;2.28;91.43359;925.7734;;;;
2023/03/11 04:23:20;;;;;;;2.2;2;;;;;;;2.37;91.40625;925.7994;;;;
2023/03/11 04:25:45;;;;;;;2.4;1.9;;;;;;;2.51;90.93359;925.7797;;;;
2023/03/11 04:28:16;;;;;;;2;1.8;;;;;;;2.64;90.3125;925.7974;;;;
2023/03/11 04:30:41;;;;;;;1.9;1.8;;;;;;;2.68;89.75;925.8217;;;;
2023/03/11 04:33:07;;;;;;;2.3;2.1;;;;;;;2.63;89.61523;925.853;;;;
2023/03/11 04:35:37;;;;;;;2.7;2.3;;;;;;;2.39;89.80859;925.88;;;;
2023/03/11 04:38:08;;;;;;;2.6;2.4;;;;;;;2.42;90.00879;925.7522;;;;
2023/03/11 04:40:37;;;;;;;3.1;2.8;;;;;;;2.34;90.68555;925.7903;;;;
2023/03/11 04:43:02;;;;;;;3;2.7;;;;;;;2.29;90.76367;925.666;;;;
2023/03/11 04:45:32;;;;;;;2.5;2.3;;;;;;;2.28;91.46777;925.8025;;;;
2023/03/11 04:47:56;;;;;;;2.7;2.3;;;;;;;2.33;91.13184;925.853;;;;
2023/03/11 04:50:26;;;;;;;2.1;1.9;;;;;;;2.39;90.95117;925.8438;;;;
2023/03/11 04:52:57;;;;;;;2.3;2.1;;;;;;;2.41;90.58691;925.8447;;;;
2023/03/11 04:55:22;;;;;;;2.3;2.1;;;;;;;2.47;90.32031;925.8331;;;;
2023/03/11 04:58:08;;;;;;;2.1;1.9;;;;;;;2.38;90.3916;925.8956;;;;
2023/03/11 05:00:40;;;;;;;2.2;2;;;;;;;2.44;90.34863;926.044;;;;
2023/03/11 05:06:25;;;;;;;2.6;2.4;;;;;;;2.23;91.23145;925.9576;;;;
2023/03/11 05:08:54;;;;;;;3.1;2.8;;;;;;;2.14;91.67383;925.9244;;;;
2023/03/11 05:11:23;;;;;;;2.4;2.1;;;;;;;2.19;91.57129;925.9755;;;;
2023/03/11 05:13:48;;;;;;;2.2;2;;;;;;;2.36;91.3623;926.0176;;;;
2023/03/11 05:16:18;;;;;;;3.2;2.4;;;;;;;2.5;91.00098;926.0192;;;;
2023/03/11 05:18:43;;;;;;;2.6;2.3;;;;;;;2.33;90.44922;926.1403;;;;
2023/03/11 05:21:10;;;;;;;3.8;2.6;;;;;;;2.38;90.91797;926.0284;;;;
2023/03/11 05:23:37;;;;;;;2.4;2.2;;;;;;;2.53;90.73535;926.1163;;;;
2023/03/11 05:26:10;;;;;;;2.2;2;;;;;;;2.52;90.1416;926.1319;;;;
2023/03/11 05:28:41;;;;;;;2.3;2.1;;;;;;;2.53;90.0293;926.0974;;;;
2023/03/11 05:31:08;;;;;;;2.5;2.3;;;;;;;2.61;89.93457;926.2305;;;;
2023/03/11 05:33:36;;;;;;;2.4;2.1;;;;;;;2.56;90.04883;926.2473;;;;
2023/03/11 05:36:01;;;;;;;2.3;2.1;;;;;;;2.63;90.03027;926.2584;;;;
2023/03/11 05:38:29;;;;;;;2.8;2.6;;;;;;;2.47;90.06348;926.215;;;;
2023/03/11 05:40:54;;;;;;;2.2;2;;;;;;;2.47;90.45508;926.2252;;;;
2023/03/11 05:43:21;;;;;;;2.6;2.2;;;;;;;2.48;90.16797;926.1578;;;;
2023/03/11 05:45:47;;;;;;;2.3;2.1;;;;;;;2.36;90.63379;926.1622;;;;
2023/03/11 05:49:11;;;;;;;2.6;2.1;;;;;;;2.41;90.36328;926.085;;;;
2023/03/11 05:51:40;;;;;;;2.2;2;;;;;;;2.55;90.19238;926.2503;;;;
2023/03/11 05:54:10;;;;;;;2.6;2.3;;;;;;;2.6;89.80078;926.1431;;;;
2023/03/11 05:56:30;;;;;;;2.5;2.1;;;;;;;2.55;89.7793;926.2952;;;;
2023/03/11 05:58:58;;;;;;;2.2;1.9;;;;;;;2.48;89.70801;926.3394;;;;
2023/03/11 06:01:23;;;;;;;2.3;1.9;;;;;;;2.51;89.72363;926.3791;;;;
2023/03/11 06:03:52;;;;;;;2.6;2.1;;;;;;;2.64;89.59473;926.283;;;;
2023/03/11 06:06:18;;;;;;;2.1;1.9;;;;;;;2.57;88.52637;926.3229;;;;
2023/03/11 06:08:49;;;;;;;1.9;1.8;;;;;;;2.52;88.58203;926.3306;;;;
2023/03/11 06:11:15;;;;;;;3.3;2.8;;;;;;;2.46;89.27637;926.3286;;;;
2023/03/11 06:13:40;;;;;;;2.4;2.2;;;;;;;2.56;89.26367;926.318;;;;
2023/03/11 06:16:13;;;;;;;2.4;2.2;;;;;;;2.68;88.98828;926.3498;;;;
2023/03/11 06:18:44;;;;;;;3.6;2.8;;;;;;;2.64;88.4834;926.3379;;;;
2023/03/11 06:21:13;;;;;;;3.6;2.6;;;;;;;2.57;89.25684;926.3678;;;;
2023/03/11 06:23:38;;;;;;;3.4;2.9;;;;;;;2.66;89.16211;926.3549;;;;
2023/03/11 06:26:08;;;;;;;3.2;2.9;;;;;;;2.62;88.78418;926.4171;;;;
2023/03/11 06:31:02;;;;;;;3.2;2.9;;;;;;;2.57;89.09766;926.5114;;;;
2023/03/11 06:33:29;;;;;;;3.2;2.9;;;;;;;2.59;89.29395;926.5269;;;;
2023/03/11 06:35:54;;;;;;;3.1;2.8;;;;;;;2.45;89.43164;926.6175;;;;
2023/03/11 06:38:23;;;;;;;2.6;2.4;;;;;;;2.51;89.69141;926.6793;;;;
2023/03/11 06:40:48;;;;;;;3.3;3;;;;;;;2.56;89.34277;926.6803;;;;
2023/03/11 06:43:28;;;;;;;4.1;3;;;;;;;2.51;89.26367;926.6478;;;;
2023/03/11 06:45:55;;;;;;;3.8;2.9;;;;;;;2.55;88.83594;926.6699;;;;
2023/03/11 06:48:20;;;;;;;3.6;3.2;;;;;;;2.53;88.58594;926.7064;;;;
2023/03/11 06:50:47;;;;;;;3.7;3.2;;;;;;;2.54;88.58789;926.7664;;;;
2023/03/11 06:53:13;;;;;;;3.9;3.2;;;;;;;2.38;89.39453;926.6825;;;;
2023/03/11 06:55:38;;;;;;;4.3;3.6;;;;;;;2.37;89.04688;926.7932;;;;
2023/03/11 06:58:07;;;;;;;4;3.4;;;;;;;2.47;89.09766;926.8173;;;;
2023/03/11 07:00:32;;;;;;;4.2;3.7;;;;;;;2.62;88.40137;926.7484;;;;
2023/03/11 07:02:59;;;;;;;4.1;3.3;;;;;;;2.39;88.33203;926.7228;;;;
2023/03/11 07:05:24;;;;;;;4.7;3.4;;;;;;;2.37;88.85254;926.9116;;;;
2023/03/11 07:07:51;;;;;;;3.9;3.4;;;;;;;2.51;88.53516;926.7514;;;;
2023/03/11 07:10:16;;;;;;;3.8;3.1;;;;;;;2.56;88.75977;926.9324;;;;
2023/03/11 07:12:55;;;;;;;3.5;3.2;;;;;;;2.61;88.32324;926.907;;;;
2023/03/11 07:15:27;;;;;;;4.3;3.8;;;;;;;2.53;87.99023;927.0967;;;;
2023/03/11 07:17:59;;;;;;;5.8;4.3;;;;;;;2.48;88.33008;927.058;;;;
2023/03/11 07:20:27;;;;;;;3.9;3.4;;;;;;;2.58;87.97949;927.0255;;;;
2023/03/11 07:22:53;;;;;;;4.4;3.7;;;;;;;2.56;87.39258;927.0095;;;;
2023/03/11 07:25:22;;;;;;;4.3;3.6;;;;;;;2.57;87.31543;927.0606;;;;
2023/03/11 07:27:51;;;;;;;4.7;3.4;;;;;;;2.67;86.83203;927.1213;;;;
2023/03/11 07:30:16;;;;;;;3.8;3.3;;;;;;;2.39;87.82813;927.1996;;;;
2023/03/11 07:32:45;;;;;;;4.5;3.7;;;;;;;2.47;87.35156;927.1592;;;;
2023/03/11 07:35:10;;;;;;;3.8;3.4;;;;;;;2.61;86.61719;927.2692;;;;
2023/03/11 07:37:41;;;;;;;6;4.8;;;;;;;2.48;86.72559;927.3156;;;;
2023/03/11 07:40:12;;;;;;;4.8;3.7;;;;;;;2.12;87.57031;927.3535;;;;
2023/03/11 07:42:39;;;;;;;4.8;4.1;;;;;;;2.16;87.50098;927.3748;;;;
2023/03/11 07:45:02;;;;;;;4.5;3.6;;;;;;;2.14;87.69727;927.2511;;;;
2023/03/11 07:47:29;;;;;;;4.5;3.2;;;;;;;1.99;87.90234;927.1923;;;;
2023/03/11 07:49:55;;;;;;;3.9;3.1;;;;;;;2.18;87.61719;927.2676;;;;
2023/03/11 07:52:20;;;;;;;4;3.1;;;;;;;2.38;87.08691;927.3416;;;;
2023/03/11 07:54:46;;;;;;;3.5;2.8;;;;;;;2.4;86.4082;927.4005;;;;
2023/03/11 07:57:15;;;;;;;3.7;2.9;;;;;;;2.37;85.81836;927.3563;;;;
2023/03/11 07:59:36;;;;;;;4.2;3.3;;;;;;;2.21;86.30273;927.436;;;;
2023/03/11 08:02:06;;;;;;;3.1;2.8;;;;;;;2.41;86.52051;927.6497;;;;
2023/03/11 08:04:31;;;;;;;4.4;3;;;;;;;2.55;85.65332;927.6975;;;;
2023/03/11 08:06:56;;;;;;;3.2;2.9;;;;;;;2.4;85.14258;927.6538;;;;
2023/03/11 08:09:22;;;;;;;3.5;2.5;;;;;;;2.32;85.16016;927.6505;;;;
2023/03/11 08:11:51;;;;;;;3.3;2.8;;;;;;;2.3;86.0752;927.7411;;;;
2023/03/11 08:14:16;;;;;;;4.2;2.8;;;;;;;2.32;85.50684;927.7714;;;;
2023/03/11 08:16:44;;;;;;;3.9;3.2;;;;;;;2.39;86.11523;927.8084;;;;
2023/03/11 08:19:14;;;;;;;3.5;2.7;;;;;;;2.26;85.83984;927.6852;;;;
2023/03/11 08:21:39;;;;;;;4.5;2.8;;;;;;;2.41;85.66895;927.6904;;;;
2023/03/11 08:24:06;;;;;;;3.3;2.7;;;;;;;2.17;85.74512;927.6797;;;;
2023/03/11 08:26:31;;;;;;;2.5;2.3;;;;;;;2.37;85.94238;927.7097;;;;
2023/03/11 08:29:00;;;;;;;3;2.6;;;;;;;2.54;85.29297;927.7271;;;;
2023/03/11 08:31:25;;;;;;;3.1;2.5;;;;;;;2.75;84.4375;927.8105;;;;
2023/03/11 08:33:52;;;;;;;4.1;2.6;;;;;;;2.67;84.11719;927.7498;;;;
2023/03/11 08:36:17;;;;;;;3.6;2.9;;;;;;;2.63;83.65234;927.7427;;;;
2023/03/11 08:38:46;;;;;;;2.6;2.4;;;;;;;2.56;83.46973;927.7614;;;;
2023/03/11 08:41:11;;;;;;;2.6;2.4;;;;;;;2.66;83.71387;927.7213;;;;
2023/03/11 08:43:37;;;;;;;3.3;2.4;;;;;;;2.61;83.69336;927.7628;;;;
2023/03/11 08:46:02;;;;;;;3.3;2.4;;;;;;;2.38;84.4873;927.7115;;;;
2023/03/11 08:48:31;;;;;;;2.9;2.1;;;;;;;2.41;85.51465;927.6961;;;;
2023/03/11 08:50:56;;;;;;;2.7;2.4;;;;;;;2.52;84.07715;927.8076;;;;
2023/03/11 08:53:21;;;;;;;2.9;2.6;;;;;;;2.42;84.4502;927.8572;;;;
2023/03/11 08:55:47;;;;;;;2.9;2.3;;;;;;;2.62;84.08594;927.913;;;;
2023/03/11 08:58:12;;;;;;;2.9;2.2;;;;;;;2.57;83.43848;927.903;;;;
2023/03/11 09:00:43;;;;;;;3;2.3;;;;;;;2.76;83.38574;927.9302;;;;
2023/03/11 09:05:56;;;;;;;3.2;2.1;;;;;;;2.69;82.94531;927.7008;;;;
2023/03/11 09:08:15;;;;;;;3.2;2.2;;;;;;;2.37;83.67773;927.7913;;;;
2023/03/11 09:10:40;;;;;;;2.8;2.3;;;;;;;2.35;84.12207;927.7986;;;;
2023/03/11 09:13:06;;;;;;;3.7;2.3;;;;;;;2.52;84.25879;927.8697;;;;
2023/03/11 09:15:35;;;;;;;3.6;2.4;;;;;;;2.58;84.12402;927.8686;;;;
2023/03/11 09:18:03;;;;;;;2.7;2.3;;;;;;;2.63;83.11426;927.87;;;;
2023/03/11 09:20:28;;;;;;;3;2.2;;;;;;;2.81;83.30469;927.7413;;;;
2023/03/11 09:22:55;;;;;;;2.4;2.2;;;;;;;3.02;82.34863;927.8362;;;;
2023/03/11 09:25:20;;;;;;;3.1;1.9;;;;;;;3.08;81.45215;927.8502;;;;
2023/03/11 09:27:48;;;;;;;2.5;2;;;;;;;2.97;81.56445;927.9529;;;;
2023/03/11 09:30:14;;;;;;;2.3;2;;;;;;;3.01;81.67188;927.9462;;;;
2023/03/11 09:32:42;;;;;;;2.8;2.1;;;;;;;3.16;80.96094;928.0334;;;;
2023/03/11 09:35:39;;;;;;;2.4;2.2;;;;;;;3.01;80.47559;928.1013;;;;
2023/03/11 09:38:07;;;;;;;2.7;1.9;;;;;;;2.75;81.85938;928.0833;;;;
2023/03/11 09:40:32;;;;;;;2.2;2;;;;;;;2.94;81.80566;928.0687;;;;
2023/03/11 09:43:29;;;;;;;2.1;1.8;;;;;;;2.79;81.95605;928.1783;;;;
2023/03/11 09:45:54;;;;;;;3.3;1.9;;;;;;;2.84;81.87695;928.1231;;;;
2023/03/11 09:48:22;;;;;;;2;1.8;;;;;;;2.81;81.89355;928.2106;;;;
2023/03/11 09:50:48;;;;;;;2.5;2;;;;;;;2.7;82.57715;928.2566;;;;
2023/03/11 09:53:14;;;;;;;3.3;2.7;;;;;;;2.69;83.08008;928.2823;;;;
2023/03/11 09:55:41;;;;;;;3.4;2.3;;;;;;;2.78;82.49414;928.2584;;;;
2023/03/11 09:58:06;;;;;;;4.1;2.5;;;;;;;2.66;83.04102;928.3013;;;;
2023/03/11 10:00:32;;;;;;;2.2;2;;;;;;;2.85;82.57324;928.2947;;;;
2023/03/11 10:02:57;;;;;;;2.9;2.2;;;;;;;3.04;81.6582;928.2898;;;;
2023/03/11 10:05:22;;;;;;;2.9;2.1;;;;;;;3.05;81.77246;928.2798;;;;
2023/03/11 10:07:49;;;;;;;2.3;2.1;;;;;;;3.28;81.78223;928.3186;;;;
2023/03/11 10:10:14;;;;;;;2.4;2.1;;;;;;;3.43;80.50684;928.2422;;;;
2023/03/11 10:12:42;;;;;;;3.1;2.4;;;;;;;3.52;80.1875;928.3211;;;;
2023/03/11 10:15:14;;;;;;;2.3;2;;;;;;;3.36;80.59473;928.343;;;;
2023/03/11 10:17:41;;;;;;;2.6;2.1;;;;;;;3.37;80.58496;928.2597;;;;
2023/03/11 10:20:07;;;;;;;2.8;2.1;;;;;;;3.34;80.2998;928.3873;;;;
2023/03/11 10:22:31;;;;;;;2.1;1.9;;;;;;;3.11;81.5459;928.4224;;;;
2023/03/11 10:24:56;;;;;;;2.3;2;;;;;;;3.36;80.91113;928.4186;;;;
2023/03/11 10:27:26;;;;;;;5.9;2.4;;;;;;;3.33;80.02832;928.4445;;;;
2023/03/11 10:29:52;;;;;;;2.3;2;;;;;;;3.27;80.56836;928.4158;;;;
2023/03/11 10:32:18;;;;;;;2.4;2.2;;;;;;;3.38;80.66504;928.4432;;;;
2023/03/11 10:34:43;;;;;;;3.2;2.5;;;;;;;3.51;79.79297;928.443;;;;
2023/03/11 10:37:08;;;;;;;2.5;2.3;;;;;;;3.54;79.65332;928.4617;;;;
2023/03/11 10:39:37;;;;;;;3.5;2.4;;;;;;;2.99;81.08594;928.5193;;;;
2023/03/11 10:42:03;;;;;;;3.3;2.4;;;;;;;3.2;81.53125;928.4746;;;;
2023/03/11 10:44:28;;;;;;;2.9;2.7;;;;;;;3.58;80.95215;928.5514;;;;
2023/03/11 10:46:53;;;;;;;3;2.6;;;;;;;3.44;79.99219;928.5776;;;;
2023/03/11 10:49:20;;;;;;;3;2.5;;;;;;;3.58;79.73828;928.715;;;;
2023/03/11 10:51:45;;;;;;;3.8;2.8;;;;;;;3.72;79.04492;928.7203;;;;
2023/03/11 10:54:10;;;;;;;3.5;3;;;;;;;3.47;79.60645;928.705;;;;
2023/03/11 10:56:37;;;;;;;2.5;2.3;;;;;;;3.63;79.9043;928.7195;;;;
2023/03/11 10:59:04;;;;;;;2.7;2.2;;;;;;;3.47;79.06543;928.7639;;;;
2023/03/11 11:01:47;;;;;;;2.5;2.3;;;;;;;3.48;79.61914;928.7651;;;;
2023/03/11 11:04:12;;;;;;;2.4;2.2;;;;;;;3.66;78.97656;928.8019;;;;
2023/03/11 11:07:25;;;;;;;3.5;2.4;;;;;;;3.21;80.26465;928.7237;;;;
2023/03/11 11:09:50;;;;;;;4.6;2.7;;;;;;;3.27;80.89355;928.788;;;;
2023/03/11 11:12:16;;;;;;;4.2;3.1;;;;;;;3.49;80.18262;928.8895;;;;
2023/03/11 11:14:40;;;;;;;4.1;3.2;;;;;;;3.37;80.42969;928.8773;;;;
2023/03/11 11:17:07;;;;;;;3.4;2.3;;;;;;;3.39;79.44531;928.851;;;;
2023/03/11 11:19:32;;;;;;;2.8;2.2;;;;;;;3.09;80.52051;928.9189;;;;
2023/03/11 11:22:01;;;;;;;2.6;2.4;;;;;;;3.27;80.35449;928.9587;;;;
2023/03/11 11:24:26;;;;;;;3.9;2.7;;;;;;;3.41;80.4707;928.9241;;;;
2023/03/11 11:26:52;;;;;;;3.9;2.5;;;;;;;3.5;78.38672;928.9188;;;;
2023/03/11 11:29:22;;;;;;;3.1;2.8;;;;;;;3.41;79.30273;928.9673;;;;
2023/03/11 11:31:50;;;;;;;7.2;4.2;;;;;;;3.2;79.99316;928.9411;;;;
2023/03/11 11:34:15;;;;;;;6;4.3;;;;;;;3.12;80.03418;928.9433;;;;
2023/03/11 11:36:41;;;;;;;5.7;3.7;;;;;;;3.38;79.15137;928.8666;;;;
2023/03/11 11:39:05;;;;;;;6.4;4.2;;;;;;;3.41;78.52539;928.8713;;;;
2023/03/11 11:41:33;;;;;;;5.7;3.5;;;;;;;3.42;77.46191;928.7661;;;;
2023/03/11 11:43:58;;;;;;;5;2.9;;;;;;;3.66;77.09082;928.7178;;;;
2023/03/11 11:46:25;;;;;;;3.2;2.4;;;;;;;3.82;76.36719;928.7338;;;;
2023/03/11 11:48:49;;;;;;;3.8;2.7;;;;;;;3.96;75.67188;928.6891;;;;
2023/03/11 11:51:18;;;;;;;4.4;2.6;;;;;;;4.13;75.21875;928.6703;;;;
2023/03/11 11:53:44;;;;;;;3.7;2.6;;;;;;;4.16;75.20117;928.6613;;;;
2023/03/11 11:56:08;;;;;;;5.4;2.4;;;;;;;4.27;74.4668;928.6439;;;;
2023/03/11 11:58:33;;;;;;;2.9;2.2;;;;;;;4.34;73.81543;928.6277;;;;
2023/03/11 12:00:59;;;;;;;3.5;2.6;;;;;;;4.19;74.47656;928.6437;;;;
2023/03/11 12:03:24;;;;;;;3.5;2.7;;;;;;;4.07;74.43164;928.622;;;;
2023/03/11 12:07:01;;;;;;;2.7;2.5;;;;;;;4.18;74.76563;928.6176;;;;
2023/03/11 12:09:27;;;;;;;3.4;2.4;;;;;;;4.15;74.34473;928.6076;;;;
2023/03/11 12:11:52;;;;;;;4.1;3.4;;;;;;;4.22;74.69434;928.5863;;;;
2023/03/11 12:14:21;;;;;;;4.4;2.7;;;;;;;4.36;73.94238;928.5673;;;;
2023/03/11 12:16:46;;;;;;;2.8;2.4;;;;;;;4.34;73.86035;928.5765;;;;
2023/03/11 12:19:11;;;;;;;2.8;2.4;;;;;;;4.13;73.47559;928.6167;;;;
2023/03/11 12:21:36;;;;;;;3.6;2.1;;;;;;;4.15;73.78223;928.6273;;;;
2023/03/11 12:24:01;;;;;;;3.2;2.6;;;;;;;3.94;75.8584;928.6083;;;;
2023/03/11 12:26:27;;;;;;;2.5;2.3;;;;;;;3.99;76.16016;928.5761;;;;
2023/03/11 12:28:52;;;;;;;3.4;2.5;;;;;;;3.79;75.74316;928.5565;;;;
2023/03/11 12:31:17;;;;;;;3.7;2.2;;;;;;;3.88;76.02832;928.53;;;;
2023/03/11 12:33:42;;;;;;;2.9;2.4;;;;;;;3.98;76.11426;928.4641;;;;
2023/03/11 12:36:31;;;;;;;2.9;2.5;;;;;;;4.21;75.06445;928.4246;;;;
2023/03/11 12:38:56;;;;;;;4.7;3;;;;;;;3.94;74.67773;928.4216;;;;
2023/03/11 12:41:21;;;;;;;5.4;3;;;;;;;4;75.24121;928.4047;;;;
2023/03/11 12:43:49;;;;;;;3.1;2.8;;;;;;;4.24;74.42773;928.3904;;;;
2023/03/11 12:46:17;;;;;;;4.3;3;;;;;;;3.91;74.77441;928.3895;;;;
2023/03/11 12:48:41;;;;;;;4.1;2.7;;;;;;;4.13;75.28809;928.3892;;;;
2023/03/11 12:51:07;;;;;;;3.2;2.8;;;;;;;4.14;74.86035;928.3577;;;;
2023/03/11 12:53:34;;;;;;;4.9;3.1;;;;;;;4.22;74.69434;928.3736;;;;
2023/03/11 12:56:04;;;;;;;10.2;7.4;;;;;;;4.37;74.66406;928.3705;;;;
2023/03/11 12:58:41;;;;;;;4.3;2.8;;;;;;;4.48;74.21191;928.3954;;;;
2023/03/11 13:01:12;;;;;;;3.6;2.9;;;;;;;4.25;73.67578;928.4277;;;;
2023/03/11 13:03:40;;;;;;;3.5;2.8;;;;;;;3.96;74.79492;928.437;;;;
2023/03/11 13:06:08;;;;;;;6.1;3.2;;;;;;;3.54;76.37207;928.3427;;;;
2023/03/11 13:08:33;;;;;;;4.1;2.9;;;;;;;3.99;76.48633;928.3091;;;;
2023/03/11 13:10:58;;;;;;;3.8;2.9;;;;;;;4.43;75.27148;928.3702;;;;
2023/03/11 13:13:23;;;;;;;3.2;2.9;;;;;;;4.6;73.53418;928.3312;;;;
2023/03/11 13:15:49;;;;;;;3.4;2.3;;;;;;;4.72;71.76465;928.3088;;;;
2023/03/11 13:21:51;;;;;;;2.8;2.3;;;;;;;4.18;74.38281;928.3419;;;;
2023/03/11 13:24:13;;;;;;;3.9;2.9;;;;;;;4.49;73.94336;928.3688;;;;
2023/03/11 13:26:38;;;;;;;4.2;2.8;;;;;;;4.2;74.60156;928.4022;;;;
2023/03/11 13:29:03;;;;;;;4.2;3;;;;;;;4.61;73.7041;928.3655;;;;
2023/03/11 13:31:30;;;;;;;4.2;3.1;;;;;;;4.79;72.25781;928.38;;;;
2023/03/11 13:34:31;;;;;;;3;2.7;;;;;;;5.01;71.28223;928.3758;;;;
2023/03/11 13:36:56;;;;;;;2.9;2.6;;;;;;;5.21;70.55957;928.3497;;;;
2023/03/11 13:39:21;;;;;;;4.3;2.8;;;;;;;5.38;70.2959;928.3936;;;;
2023/03/11 13:41:46;;;;;;;4.7;2.9;;;;;;;4.98;71.20996;928.4217;;;;
2023/03/11 13:44:11;;;;;;;5.3;3;;;;;;;4.94;72.64648;928.3589;;;;
2023/03/11 13:46:39;;;;;;;3.6;2.7;;;;;;;5.27;70.97559;928.4807;;;;
2023/03/11 13:49:03;;;;;;;4.1;2.4;;;;;;;5.35;68.97168;928.4897;;;;
2023/03/11 13:51:28;;;;;;;3.2;2.7;;;;;;;5.51;68.68066;928.4832;;;;
2023/03/11 13:53:54;;;;;;;4.7;2.9;;;;;;;5.6;68.68359;928.5427;;;;
2023/03/11 13:56:19;;;;;;;3.5;2.3;;;;;;;5.31;69.20117;928.5333;;;;
2023/03/11 13:58:48;;;;;;;3.1;2.8;;;;;;;5.46;69.0791;928.5103;;;;
2023/03/11 14:01:13;;;;;;;2.7;2.5;;;;;;;5.48;70.58203;928.4828;;;;
2023/03/11 14:03:45;;;;;;;3.8;2.5;;;;;;;5.58;69.49219;928.495;;;;
2023/03/11 14:06:10;;;;;;;2.8;2.4;;;;;;;5.25;68.41113;928.5048;;;;
2023/03/11 14:08:36;;;;;;;2.5;2.3;;;;;;;5.25;68.93164;928.5294;;;;
2023/03/11 14:11:01;;;;;;;3.3;2.6;;;;;;;5.13;70.64941;928.5392;;;;
2023/03/11 14:13:26;;;;;;;2.7;2.5;;;;;;;5.38;69.89941;928.5309;;;;
2023/03/11 14:15:55;;;;;;;3.3;2.8;;;;;;;5.4;68.75195;928.4847;;;;
2023/03/11 14:18:49;;;;;;;3.8;2.6;;;;;;;5.19;69.48633;928.5938;;;;
2023/03/11 14:21:14;;;;;;;3.1;2.5;;;;;;;5.2;70.89648;928.5259;;;;
2023/03/11 14:23:41;;;;;;;4.1;3.2;;;;;;;5.42;70.44824;928.5839;;;;
2023/03/11 14:26:09;;;;;;;10;6;;;;;;;5.39;69.78809;928.5366;;;;
2023/03/11 14:28:35;;;;;;;7.3;4.6;;;;;;;5.56;71.84961;928.5044;;;;
2023/03/11 14:31:00;;;;;;;3.6;2.8;;;;;;;5.33;68.12109;928.5453;;;;
2023/03/11 14:33:25;;;;;;;2.9;2.5;;;;;;;5.56;67.17578;928.5343;;;;
2023/03/11 14:35:50;;;;;;;3.8;3.3;;;;;;;5.52;68.77246;928.6262;;;;
2023/03/11 14:38:18;;;;;;;3.6;2.5;;;;;;;5.35;68.60938;928.6127;;;;
2023/03/11 14:40:43;;;;;;;3.3;2.4;;;;;;;5.41;68.93359;928.6326;;;;
2023/03/11 14:43:09;;;;;;;3.6;2.7;;;;;;;5.57;66.75879;928.6512;;;;
2023/03/11 14:45:36;;;;;;;3.8;2.5;;;;;;;5.54;65.80664;928.6477;;;;
2023/03/11 14:48:01;;;;;;;3;2.6;;;;;;;5.61;67.18359;928.6584;;;;
2023/03/11 14:50:28;;;;;;;10.9;5.6;;;;;;;5.34;71.62988;928.6102;;;;
2023/03/11 14:52:56;;;;;;;8.7;6;;;;;;;4.48;73.50195;928.6312;;;;
2023/03/11 14:55:21;;;;;;;20.7;12;;;;;;;4.28;76.12402;928.6449;;;;
2023/03/11 14:57:49;;;;;;;19.7;12.1;;;;;;;4.21;76.91895;928.7389;;;;
2023/03/11 15:00:16;;;;;;;13.9;9.1;;;;;;;4.19;77.1875;928.7171;;;;
2023/03/11 15:02:47;;;;;;;17.7;12.1;;;;;;;4.12;76.96094;928.712;;;;
2023/03/11 15:05:13;;;;;;;8.3;7.4;;;;;;;3.86;78.07129;928.6895;;;;
2023/03/11 15:07:38;;;;;;;4;3.1;;;;;;;3.89;79.38184;928.7083;;;;